createdAt,value
2018-05-18T00:02:22.229Z,9.77
2018-05-18T00:04:49.075Z,9.52
2018-05-18T00:07:16.019Z,9.69
2018-05-18T00:09:42.904Z,9.64
2018-05-18T00:12:09.752Z,9.81
2018-05-18T00:14:36.628Z,9.73
2018-05-18T00:17:03.518Z,9.85
2018-05-18T00:19:31.106Z,9.81
2018-05-18T00:21:57.944Z,9.86
2018-05-18T00:24:25.095Z,9.92
2018-05-18T00:26:51.936Z,9.97
2018-05-18T00:29:18.785Z,9.95
2018-05-18T00:31:45.682Z,9.98
2018-05-18T00:34:12.524Z,10.04
2018-05-18T00:36:39.366Z,10.05
2018-05-18T00:39:06.579Z,9.97
2018-05-18T00:41:33.418Z,10.02
2018-05-18T00:44:00.276Z,10.07
2018-05-18T00:46:27.479Z,10.01
2018-05-18T00:48:54.322Z,10.01
2018-05-18T00:51:21.160Z,9.91
2018-05-18T00:53:48.360Z,10.06
2018-05-18T00:56:15.194Z,10.08
2018-05-18T00:58:42.032Z,10.06
2018-05-18T01:01:09.820Z,9.92
2018-05-18T01:03:36.659Z,10.05
2018-05-18T01:06:03.532Z,10.01
2018-05-18T01:08:30.861Z,10.11
2018-05-18T01:10:57.732Z,10.11
2018-05-18T01:13:24.575Z,10.17
2018-05-18T01:15:51.571Z,10.01
2018-05-18T01:18:18.364Z,10.07
2018-05-18T01:20:45.255Z,10.10
2018-05-18T01:23:13.260Z,10.04
2018-05-18T01:25:40.103Z,10.20
2018-05-18T01:28:06.937Z,10.13
2018-05-18T01:30:34.094Z,10.09
2018-05-18T01:33:00.988Z,9.94
2018-05-18T01:35:27.836Z,10.10
2018-05-18T01:37:55.032Z,10.11
2018-05-18T01:40:21.868Z,10.03
2018-05-18T01:42:48.721Z,10.17
2018-05-18T01:45:15.872Z,10.15
2018-05-18T01:47:42.735Z,10.11
2018-05-18T01:50:09.575Z,10.10
2018-05-18T01:52:36.724Z,10.19
2018-05-18T01:55:03.626Z,10.10
2018-05-18T01:57:31.214Z,10.07
2018-05-18T01:59:58.111Z,10.15
2018-05-18T02:02:24.980Z,10.11
2018-05-18T02:04:52.647Z,10.22
2018-05-18T02:07:20.284Z,10.15
2018-05-18T02:09:47.172Z,10.13
2018-05-18T02:12:14.748Z,10.15
2018-05-18T02:14:41.796Z,10.27
2018-05-18T02:17:08.635Z,10.23
2018-05-18T02:19:35.474Z,10.19
2018-05-18T02:22:02.741Z,10.24
2018-05-18T02:24:29.600Z,10.03
2018-05-18T02:26:56.464Z,10.03
2018-05-18T02:29:23.616Z,10.16
2018-05-18T02:31:50.474Z,10.07
2018-05-18T02:34:17.405Z,10.13
2018-05-18T02:36:44.720Z,10.11
2018-05-18T02:39:11.603Z,10.18
2018-05-18T02:41:38.467Z,10.11
2018-05-18T02:44:05.767Z,10.06
2018-05-18T02:46:32.619Z,10.04
2018-05-18T02:48:59.464Z,10.08
2018-05-18T02:51:26.599Z,10.07
2018-05-18T02:53:53.444Z,10.01
2018-05-18T02:56:20.284Z,10.12
2018-05-18T02:58:47.905Z,10.05
2018-05-18T03:01:14.752Z,10.13
2018-05-18T03:03:41.619Z,10.05
2018-05-18T03:06:09.244Z,10.03
2018-05-18T03:08:36.091Z,9.93
2018-05-18T03:11:02.945Z,10.07
2018-05-18T03:13:30.049Z,10.09
2018-05-18T03:15:56.891Z,10.05
2018-05-18T03:18:23.727Z,9.93
2018-05-18T03:20:50.992Z,10.05
2018-05-18T03:23:17.839Z,9.96
2018-05-18T03:25:44.681Z,10.09
2018-05-18T03:28:11.580Z,9.86
2018-05-18T03:30:38.416Z,9.98
2018-05-18T03:33:05.292Z,10.03
2018-05-18T03:35:33.282Z,10.08
2018-05-18T03:38:01.003Z,10.09
2018-05-18T03:40:27.844Z,9.91
2018-05-18T03:42:55.021Z,10.11
2018-05-18T03:45:22.596Z,10.10
2018-05-18T03:47:49.450Z,10.07
2018-05-18T03:50:16.365Z,10.07
2018-05-18T03:52:43.991Z,10.19
2018-05-18T03:55:10.841Z,10.17
2018-05-18T03:57:37.738Z,10.11
2018-05-18T04:00:04.636Z,9.94
2018-05-18T04:02:50.182Z,9.97
2018-05-18T04:05:35.637Z,10.00
2018-05-18T04:08:21.676Z,10.02
2018-05-18T04:10:48.536Z,9.94
2018-05-18T04:13:15.372Z,10.11
2018-05-18T04:15:42.513Z,10.07
2018-05-18T04:18:09.477Z,9.97
2018-05-18T04:20:36.362Z,10.14
2018-05-18T04:23:04.007Z,10.00
2018-05-18T04:25:30.849Z,9.91
2018-05-18T04:27:57.694Z,9.99
2018-05-18T04:30:24.660Z,10.10
2018-05-18T04:32:51.473Z,10.13
2018-05-18T04:35:18.330Z,10.04
2018-05-18T04:37:46.128Z,10.06
2018-05-18T04:40:13.015Z,10.09
2018-05-18T04:42:40.820Z,10.17
2018-05-18T04:45:09.029Z,10.19
2018-05-18T04:47:36.566Z,10.27
2018-05-18T04:50:03.436Z,10.13
2018-05-18T04:52:30.616Z,10.26
2018-05-18T04:54:57.469Z,10.30
2018-05-18T04:57:24.321Z,10.07
2018-05-18T04:59:51.224Z,10.23
2018-05-18T05:02:18.811Z,10.25
2018-05-18T05:04:45.668Z,10.06
2018-05-18T05:07:12.873Z,10.32
2018-05-18T05:09:39.721Z,10.07
2018-05-18T05:12:06.540Z,10.22
2018-05-18T05:14:34.531Z,10.26
2018-05-18T05:17:01.372Z,10.37
2018-05-18T05:19:28.476Z,10.43
2018-05-18T05:21:55.680Z,10.37
2018-05-18T05:24:22.525Z,10.36
2018-05-18T05:26:49.364Z,10.32
2018-05-18T05:29:16.519Z,10.31
2018-05-18T05:31:43.356Z,10.21
2018-05-18T05:34:10.253Z,10.29
2018-05-18T05:36:37.212Z,10.39
2018-05-18T05:39:04.107Z,10.35
2018-05-18T05:41:30.953Z,10.35
2018-05-18T05:43:59.167Z,10.49
2018-05-18T05:46:26.004Z,10.55
2018-05-18T05:48:52.875Z,10.42
2018-05-18T05:51:20.579Z,10.34
2018-05-18T05:53:47.426Z,10.44
2018-05-18T05:56:14.288Z,10.46
2018-05-18T05:58:41.521Z,10.41
2018-05-18T06:01:08.359Z,10.55
2018-05-18T06:03:35.219Z,10.55
2018-05-18T06:06:02.144Z,10.47
2018-05-18T06:08:29.004Z,10.46
2018-05-18T06:10:55.859Z,10.19
2018-05-18T06:13:23.094Z,10.37
2018-05-18T06:15:49.972Z,10.26
2018-05-18T06:18:16.802Z,10.49
2018-05-18T06:20:44.140Z,10.66
2018-05-18T06:23:10.989Z,10.57
2018-05-18T06:25:37.852Z,10.67
2018-05-18T06:28:04.763Z,10.75
2018-05-18T06:30:32.348Z,10.59
2018-05-18T06:32:59.210Z,10.60
2018-05-18T06:35:26.432Z,10.71
2018-05-18T06:37:53.260Z,10.67
2018-05-18T06:40:20.831Z,10.42
2018-05-18T06:42:48.091Z,10.72
2018-05-18T06:45:15.659Z,10.68
2018-05-18T06:47:42.484Z,10.86
2018-05-18T06:50:10.144Z,10.51
2018-05-18T06:52:37.827Z,10.45
2018-05-18T06:55:04.640Z,10.56
2018-05-18T06:57:31.818Z,10.47
2018-05-18T06:59:58.652Z,10.35
2018-05-18T07:02:25.481Z,10.63
2018-05-18T07:04:53.135Z,10.59
2018-05-18T07:07:20.719Z,10.82
2018-05-18T07:09:47.559Z,10.79
2018-05-18T07:12:15.331Z,10.84
2018-05-18T07:14:55.047Z,10.84
2018-05-18T07:17:22.239Z,11.11
2018-05-18T07:19:49.241Z,10.91
2018-05-18T07:22:16.241Z,11.10
2018-05-18T07:24:43.389Z,10.73
2018-05-18T07:27:10.388Z,10.89
2018-05-18T07:29:37.234Z,11.10
2018-05-18T07:32:04.643Z,11.11
2018-05-18T07:34:31.628Z,11.22
2018-05-18T07:36:58.484Z,11.31
2018-05-18T07:39:25.385Z,11.40
2018-05-18T07:41:52.236Z,10.93
2018-05-18T07:44:19.246Z,11.25
2018-05-18T07:46:46.152Z,11.25
2018-05-18T07:49:12.987Z,11.23
2018-05-18T07:51:39.830Z,11.25
2018-05-18T07:54:07.050Z,11.34
2018-05-18T07:56:33.908Z,11.41
2018-05-18T07:59:00.751Z,11.14
2018-05-18T08:01:27.657Z,11.42
2018-05-18T08:03:55.315Z,11.53
2018-05-18T08:06:22.177Z,11.21
2018-05-18T08:08:50.184Z,11.37
2018-05-18T08:11:17.051Z,11.53
2018-05-18T08:13:45.361Z,11.43
2018-05-18T08:16:12.642Z,11.75
2018-05-18T08:18:39.499Z,11.75
2018-05-18T08:21:06.364Z,11.93
2018-05-18T08:23:39.436Z,11.86
2018-05-18T08:26:06.341Z,12.11
2018-05-18T08:28:51.958Z,11.97
2018-05-18T08:31:18.827Z,12.01
2018-05-18T08:33:45.678Z,11.97
2018-05-18T08:36:12.844Z,12.27
2018-05-18T08:38:39.688Z,12.44
2018-05-18T08:41:06.537Z,12.38
2018-05-18T08:43:34.343Z,12.14
2018-05-18T08:46:01.207Z,12.02
2018-05-18T08:48:28.050Z,12.23
2018-05-18T08:50:54.936Z,12.27
2018-05-18T08:53:21.768Z,11.72
2018-05-18T08:55:48.612Z,11.62
2018-05-18T08:58:15.519Z,12.19
2018-05-18T09:00:42.528Z,12.22
2018-05-18T09:03:09.465Z,12.24
2018-05-18T09:05:36.389Z,11.84
2018-05-18T09:08:03.303Z,11.65
2018-05-18T09:10:30.157Z,12.07
2018-05-18T09:12:57.812Z,12.22
2018-05-18T09:15:24.661Z,12.42
2018-05-18T09:17:51.794Z,12.49
2018-05-18T09:20:19.784Z,12.43
2018-05-18T09:22:46.612Z,12.38
2018-05-18T09:25:13.444Z,12.71
2018-05-18T09:27:41.340Z,12.24
2018-05-18T09:30:08.307Z,12.66
2018-05-18T09:32:35.136Z,12.90
2018-05-18T09:35:02.381Z,13.08
2018-05-18T09:37:29.220Z,12.90
2018-05-18T09:39:56.161Z,13.26
2018-05-18T09:42:22.976Z,13.03
2018-05-18T09:44:49.880Z,12.98
2018-05-18T09:47:17.411Z,12.92
2018-05-18T09:49:45.392Z,13.11
2018-05-18T09:52:12.220Z,13.20
2018-05-18T09:54:39.935Z,12.95
2018-05-18T09:57:06.697Z,12.91
2018-05-18T09:59:33.531Z,12.76
2018-05-18T10:02:00.386Z,13.27
2018-05-18T10:04:27.281Z,13.57
2018-05-18T10:06:54.131Z,13.45
2018-05-18T10:09:20.973Z,13.72
2018-05-18T10:11:47.855Z,13.77
2018-05-18T10:14:14.679Z,14.07
2018-05-18T10:16:42.261Z,13.92
2018-05-18T10:19:09.883Z,13.95
2018-05-18T10:21:36.716Z,13.89
2018-05-18T10:24:03.593Z,13.89
2018-05-18T10:26:30.521Z,13.98
2018-05-18T10:28:57.338Z,13.87
2018-05-18T10:31:25.043Z,14.09
2018-05-18T10:33:52.926Z,14.03
2018-05-18T10:36:19.797Z,13.92
2018-05-18T10:38:47.378Z,14.41
2018-05-18T10:41:15.016Z,14.23
2018-05-18T10:43:41.864Z,14.30
2018-05-18T10:46:09.507Z,14.14
2018-05-18T10:48:36.779Z,14.30
2018-05-18T10:51:03.616Z,14.20
2018-05-18T10:53:30.458Z,14.31
2018-05-18T10:55:57.623Z,13.93
2018-05-18T10:58:24.453Z,14.40
2018-05-18T11:00:51.357Z,14.36
2018-05-18T11:03:18.400Z,14.03
2018-05-18T11:05:45.243Z,14.27
2018-05-18T11:08:12.102Z,14.35
2018-05-18T11:10:38.991Z,14.25
2018-05-18T11:13:06.580Z,14.19
2018-05-18T11:15:34.179Z,14.41
2018-05-18T11:18:01.405Z,14.58
2018-05-18T11:20:28.236Z,14.87
2018-05-18T11:22:55.144Z,15.31
2018-05-18T11:25:22.036Z,15.50
2018-05-18T11:27:48.875Z,15.66
2018-05-18T11:30:15.946Z,14.55
2018-05-18T11:32:43.024Z,14.83
2018-05-18T11:35:09.881Z,14.70
2018-05-18T11:37:36.919Z,14.50
2018-05-18T11:40:03.859Z,14.35
2018-05-18T11:42:30.686Z,14.52
2018-05-18T11:44:57.520Z,14.37
2018-05-18T11:47:24.532Z,14.44
2018-05-18T11:49:52.112Z,14.49
2018-05-18T11:52:18.965Z,14.63
2018-05-18T11:54:46.905Z,14.76
2018-05-18T11:57:13.705Z,14.80
2018-05-18T11:59:41.012Z,14.83
2018-05-18T12:02:09.067Z,14.66
2018-05-18T12:04:36.655Z,14.75
2018-05-18T12:07:04.861Z,14.20
2018-05-18T12:09:31.740Z,14.32
2018-05-18T12:11:58.572Z,14.80
2018-05-18T12:14:25.424Z,14.91
2018-05-18T12:16:52.315Z,14.77
2018-05-18T12:19:19.163Z,14.94
2018-05-18T12:21:46.349Z,15.19
2018-05-18T12:24:14.447Z,14.98
2018-05-18T12:26:41.302Z,15.33
2018-05-18T12:29:08.208Z,15.68
2018-05-18T12:31:35.117Z,16.16
2018-05-18T12:34:02.135Z,16.73
2018-05-18T12:36:30.109Z,16.37
2018-05-18T12:38:56.996Z,16.02
2018-05-18T12:41:23.835Z,15.54
2018-05-18T12:43:50.684Z,16.04
2018-05-18T12:46:17.596Z,16.52
2018-05-18T12:48:44.668Z,16.10
2018-05-18T12:51:11.546Z,16.09
2018-05-18T12:53:38.431Z,15.90
2018-05-18T12:56:05.307Z,15.50
2018-05-18T12:58:32.178Z,15.70
2018-05-18T13:00:59.109Z,16.32
2018-05-18T13:03:25.984Z,16.35
2018-05-18T13:05:52.860Z,16.13
2018-05-18T13:08:20.484Z,16.23
2018-05-18T13:10:47.351Z,16.22
2018-05-18T13:13:14.188Z,16.12
2018-05-18T13:15:41.216Z,16.14
2018-05-18T13:18:08.060Z,15.74
2018-05-18T13:20:34.887Z,15.45
2018-05-18T13:23:02.035Z,15.52
2018-05-18T13:25:28.869Z,15.88
2018-05-18T13:27:56.465Z,16.11
2018-05-18T13:30:23.444Z,16.61
2018-05-18T13:32:50.300Z,17.23
2018-05-18T13:35:17.321Z,16.68
2018-05-18T13:37:44.254Z,16.82
2018-05-18T13:40:11.101Z,16.35
2018-05-18T13:42:37.928Z,16.78
2018-05-18T13:45:05.233Z,17.39
2018-05-18T13:47:32.049Z,17.09
2018-05-18T13:49:58.889Z,16.41
2018-05-18T13:52:26.108Z,16.44
2018-05-18T13:54:52.999Z,16.74
2018-05-18T13:57:19.855Z,16.95
2018-05-18T13:59:46.746Z,17.11
2018-05-18T14:02:13.588Z,16.76
2018-05-18T14:04:40.432Z,16.76
2018-05-18T14:07:07.328Z,16.75
2018-05-18T14:09:34.151Z,16.99
2018-05-18T14:12:00.985Z,17.11
2018-05-18T14:14:27.877Z,16.82
2018-05-18T14:16:54.731Z,16.65
2018-05-18T14:19:22.300Z,16.49
2018-05-18T14:21:49.924Z,16.10
2018-05-18T14:24:16.769Z,16.25
2018-05-18T14:26:43.612Z,16.11
2018-05-18T14:29:10.530Z,16.25
2018-05-18T14:31:37.363Z,16.68
2018-05-18T14:34:05.017Z,17.63
2018-05-18T14:36:32.105Z,17.14
2018-05-18T14:38:58.952Z,16.87
2018-05-18T14:41:25.793Z,17.07
2018-05-18T14:43:52.985Z,17.23
2018-05-18T14:46:19.813Z,17.21
2018-05-18T14:48:46.652Z,17.02
2018-05-18T14:51:13.945Z,17.87
2018-05-18T14:53:40.731Z,18.08
2018-05-18T14:56:07.572Z,18.30
2018-05-18T14:58:34.898Z,18.44
2018-05-18T15:01:01.696Z,18.47
2018-05-18T15:03:28.524Z,18.26
2018-05-18T15:05:55.433Z,17.53
2018-05-18T15:08:22.271Z,17.53
2018-05-18T15:10:49.111Z,16.59
2018-05-18T15:13:16.006Z,17.52
2018-05-18T15:15:42.836Z,18.17
2018-05-18T15:18:09.677Z,17.60
2018-05-18T15:20:36.686Z,18.31
2018-05-18T15:23:03.540Z,18.56
2018-05-18T15:25:30.387Z,18.23
2018-05-18T15:27:57.272Z,18.43
2018-05-18T15:30:24.108Z,18.33
2018-05-18T15:32:50.953Z,18.38
2018-05-18T15:35:18.107Z,18.08
2018-05-18T15:37:45.392Z,18.44
2018-05-18T15:40:12.228Z,18.31
2018-05-18T15:42:39.190Z,18.30
2018-05-18T15:45:05.999Z,17.62
2018-05-18T15:47:32.866Z,17.88
2018-05-18T15:49:59.751Z,18.25
2018-05-18T15:52:26.589Z,18.25
2018-05-18T15:54:53.444Z,18.19
2018-05-18T15:57:20.656Z,17.71
2018-05-18T15:59:47.443Z,17.56
2018-05-18T16:02:14.283Z,18.00
2018-05-18T16:04:41.437Z,17.97
2018-05-18T16:07:08.284Z,17.86
2018-05-18T16:09:35.121Z,17.85
2018-05-18T16:12:02.154Z,18.31
2018-05-18T16:14:29.728Z,18.09
2018-05-18T16:16:56.559Z,18.27
2018-05-18T16:19:24.190Z,17.84
2018-05-18T16:21:51.032Z,17.71
2018-05-18T16:24:17.875Z,17.40
2018-05-18T16:26:44.757Z,17.86
2018-05-18T16:29:11.643Z,17.48
2018-05-18T16:31:38.484Z,17.56
2018-05-18T16:34:05.657Z,17.75
2018-05-18T16:36:32.511Z,17.89
2018-05-18T16:38:59.533Z,17.75
2018-05-18T16:41:26.758Z,17.55
2018-05-18T16:43:53.603Z,17.31
2018-05-18T16:46:20.452Z,17.17
2018-05-18T16:48:47.348Z,17.02
2018-05-18T16:51:14.179Z,17.01
2018-05-18T16:53:41.016Z,16.96
2018-05-18T16:56:07.908Z,16.84
2018-05-18T16:58:35.636Z,16.30
2018-05-18T17:01:02.573Z,16.60
2018-05-18T17:03:29.703Z,16.90
2018-05-18T17:05:57.343Z,16.58
2018-05-18T17:08:24.456Z,16.62
2018-05-18T17:10:51.823Z,16.56
2018-05-18T17:13:18.712Z,16.54
2018-05-18T17:15:45.553Z,16.69
2018-05-18T17:18:12.576Z,16.52
2018-05-18T17:20:40.555Z,16.20
2018-05-18T17:23:07.414Z,16.24
2018-05-18T17:25:34.308Z,16.12
2018-05-18T17:28:01.131Z,15.83
2018-05-18T17:30:28.103Z,15.96
2018-05-18T17:32:55.467Z,15.87
2018-05-18T17:35:22.438Z,15.24
2018-05-18T17:37:49.365Z,15.65
2018-05-18T17:40:17.210Z,15.69
2018-05-18T17:42:44.095Z,15.52
2018-05-18T17:45:10.984Z,15.47
2018-05-18T17:47:38.420Z,15.53
2018-05-18T17:50:05.289Z,15.63
2018-05-18T17:52:33.217Z,15.44
2018-05-18T17:55:01.567Z,15.31
2018-05-18T17:57:29.308Z,15.30
2018-05-18T17:59:56.148Z,15.12
2018-05-18T18:02:23.323Z,15.04
2018-05-18T18:04:50.406Z,14.50
2018-05-18T18:07:17.251Z,14.74
2018-05-18T18:09:45.340Z,14.74
2018-05-18T18:12:12.171Z,14.41
2018-05-18T18:14:39.022Z,14.53
2018-05-18T18:17:06.683Z,14.62
2018-05-18T18:19:34.443Z,14.51
2018-05-18T18:22:01.288Z,14.33
2018-05-18T18:24:28.652Z,14.44
2018-05-18T18:26:55.488Z,14.41
2018-05-18T18:29:22.699Z,14.37
2018-05-18T18:31:49.876Z,14.18
2018-05-18T18:34:18.439Z,14.15
2018-05-18T18:36:45.268Z,14.05
2018-05-18T18:39:12.420Z,13.90
2018-05-18T18:41:39.263Z,13.89
2018-05-18T18:44:06.109Z,13.85
2018-05-18T18:46:33.737Z,13.83
2018-05-18T18:49:00.582Z,13.82
2018-05-18T18:51:27.430Z,13.69
2018-05-18T18:53:54.322Z,13.53
2018-05-18T18:56:21.928Z,13.53
2018-05-18T18:58:48.900Z,13.43
2018-05-18T19:01:15.704Z,13.47
2018-05-18T19:03:42.588Z,13.15
2018-05-18T19:06:09.427Z,13.16
2018-05-18T19:08:37.056Z,13.15
2018-05-18T19:11:04.641Z,13.02
2018-05-18T19:13:31.492Z,12.94
2018-05-18T19:15:58.403Z,12.95
2018-05-18T19:18:25.987Z,12.74
2018-05-18T19:20:53.031Z,12.79
2018-05-18T19:23:21.051Z,12.82
2018-05-18T19:25:47.890Z,12.35
2018-05-18T19:28:14.769Z,12.58
2018-05-18T19:30:42.420Z,12.54
2018-05-18T19:33:10.016Z,12.34
2018-05-18T19:35:37.135Z,12.50
2018-05-18T19:38:04.267Z,12.46
2018-05-18T19:40:31.096Z,12.39
2018-05-18T19:42:58.198Z,12.21
2018-05-18T19:45:25.836Z,12.21
2018-05-18T19:47:52.693Z,12.24
2018-05-18T19:50:20.295Z,12.05
2018-05-18T19:52:47.185Z,12.15
2018-05-18T19:55:14.031Z,12.02
2018-05-18T19:57:41.905Z,11.93
2018-05-18T20:00:08.797Z,11.82
2018-05-18T20:02:35.628Z,11.63
2018-05-18T20:05:02.529Z,11.58
2018-05-18T20:07:29.688Z,11.70
2018-05-18T20:09:56.531Z,11.26
2018-05-18T20:12:23.414Z,11.64
2018-05-18T20:14:50.579Z,11.68
2018-05-18T20:17:17.433Z,11.67
2018-05-18T20:19:44.317Z,11.76
2018-05-18T20:22:11.165Z,11.70
2018-05-18T20:24:38.004Z,11.70
2018-05-18T20:27:04.887Z,11.66
2018-05-18T20:29:32.041Z,11.12
2018-05-18T20:31:58.878Z,11.16
2018-05-18T20:34:25.743Z,11.09
2018-05-18T20:36:52.984Z,11.01
2018-05-18T20:39:19.824Z,10.92
2018-05-18T20:41:46.661Z,10.82
2018-05-18T20:44:13.688Z,10.76
2018-05-18T20:46:40.528Z,10.78
2018-05-18T20:49:07.371Z,10.71
2018-05-18T20:51:34.500Z,10.75
2018-05-18T20:54:01.337Z,10.67
2018-05-18T20:56:28.207Z,10.43
2018-05-18T20:58:55.401Z,10.46
2018-05-18T21:01:22.252Z,10.64
2018-05-18T21:03:49.180Z,10.39
2018-05-18T21:06:16.834Z,10.57
2018-05-18T21:08:44.452Z,10.63
2018-05-18T21:11:11.296Z,10.24
2018-05-18T21:13:38.191Z,10.23
2018-05-18T21:16:05.059Z,10.13
2018-05-18T21:18:32.007Z,10.12
2018-05-18T21:20:59.148Z,10.08
2018-05-18T21:23:25.974Z,10.18
2018-05-18T21:25:53.557Z,10.08
2018-05-18T21:28:20.805Z,10.08
2018-05-18T21:30:48.632Z,10.09
2018-05-18T21:33:15.458Z,10.10
2018-05-18T21:35:42.617Z,9.95
2018-05-18T21:38:09.471Z,9.77
2018-05-18T21:40:36.309Z,9.82
2018-05-18T21:43:03.512Z,9.88
2018-05-18T21:45:30.343Z,9.81
2018-05-18T21:47:57.195Z,9.75
2018-05-18T21:50:24.204Z,9.74
2018-05-18T21:52:51.041Z,9.55
2018-05-18T21:55:17.880Z,9.35
2018-05-18T21:57:44.772Z,9.70
2018-05-18T22:00:11.636Z,9.67
2018-05-18T22:02:38.487Z,9.47
2018-05-18T22:05:05.644Z,9.31
2018-05-18T22:07:32.521Z,9.46
2018-05-18T22:09:59.353Z,9.45
2018-05-18T22:12:26.251Z,9.46
2018-05-18T22:14:53.834Z,9.50
2018-05-18T22:17:20.669Z,9.41
2018-05-18T22:19:47.536Z,9.54
2018-05-18T22:22:14.400Z,9.54
2018-05-18T22:24:41.216Z,9.59
2018-05-18T22:27:08.087Z,9.66
2018-05-18T22:29:34.905Z,9.85
2018-05-18T22:32:01.779Z,9.65
2018-05-18T22:34:28.885Z,9.49
2018-05-18T22:36:55.771Z,9.81
2018-05-18T22:39:22.603Z,9.54
2018-05-18T22:41:49.477Z,9.55
2018-05-18T22:44:16.303Z,9.42
2018-05-18T22:46:43.157Z,9.74
2018-05-18T22:49:10.041Z,9.81
2018-05-18T22:51:37.619Z,9.51
2018-05-18T22:54:04.436Z,9.52
2018-05-18T22:56:32.050Z,9.54
2018-05-18T22:59:02.552Z,9.47
2018-05-18T23:01:31.184Z,9.52
2018-05-18T23:03:58.083Z,9.35
2018-05-18T23:06:24.911Z,9.42
2018-05-18T23:08:52.490Z,9.53
2018-05-18T23:11:19.451Z,9.93
2018-05-18T23:13:46.276Z,9.99
2018-05-18T23:16:13.104Z,10.06
2018-05-18T23:18:40.713Z,10.04
2018-05-18T23:21:07.533Z,10.06
2018-05-18T23:23:34.380Z,10.13
2018-05-18T23:26:01.261Z,10.13
2018-05-18T23:28:28.185Z,10.17
2018-05-18T23:30:55.022Z,9.89
2018-05-18T23:33:22.033Z,10.08
2018-05-18T23:35:49.607Z,10.29
2018-05-18T23:38:17.214Z,10.05
2018-05-18T23:40:44.094Z,9.77
2018-05-18T23:43:11.674Z,9.95
2018-05-18T23:45:39.229Z,10.16
2018-05-18T23:48:06.980Z,10.16
2018-05-18T23:50:33.803Z,10.04
2018-05-18T23:53:00.639Z,10.25
2018-05-18T23:55:27.601Z,10.16
2018-05-18T23:57:54.592Z,10.19
